Latest Coastal Weather Observations for Sydney Harbour

IDN60701

Issued at 1:01 am EDT Friday 9 December 2016 (issued every 10 minutes, with the page automatically refreshed every 10 minutes)

About coastal observations | Map of coastal stations | Coastal observations for NSW | Marine services | Other Formats
Station Details ID: 066196 Name: WEDDING CAKE WEST Lat: -33.84 Lon: 151.26 Height: 6.0 m
Data from the previous 72 hours. | See also: Recent months at Sydney Harbour
Date/Time
EDT
Temp
°C
Wind Pressure Rain since
9am
mm
Weather Cloud Vis
km
Sea
Height
m
Swell
Dir  Spd
kts
Gust
kts
hPa Trend Height
m
Period
s
Dir
09/12:59am 22.8 WSW 21 31 - - - - - - - - - -
09/12:43am 23.6 W 24 40 - - - - - - - - - -
09/12:38am 26.0 WNW 17 37 - - - - - - - - - -
09/12:30am 26.5 WNW 16 23 - - - - - - - - - -
09/12:00am 26.8 WNW 14 19 - - - - - - - - - -
 
Date/Time
EDT
Temp
°C
Wind Pressure Rain since
9am
mm
Weather Cloud Vis
km
Sea
Height
m
Swell
Dir  Spd
kts
Gust
kts
hPa Trend Height
m
Period
s
Dir
08/11:46pm 26.8 WNW 15 21 - - - - - - - - - -
08/11:30pm 25.8 W 8 9 - - - - - - - - - -
08/11:00pm 26.5 WSW 11 16 - - - - - - - - - -
08/10:37pm 27.0 W 11 21 - - - - - - - - - -
08/10:30pm 25.3 WNW 6 9 - - - - - - - - - -
08/10:00pm 24.3 SE 4 7 - - - - - - - - - -
08/09:30pm 25.4 SSW 10 18 - - - - - - - - - -
08/09:24pm 24.4 SSW 7 16 - - - - - - - - - -
08/09:14pm 24.7 NNW 16 30 - - - - - - - - - -
08/09:13pm 24.3 N 16 30 - - - - - - - - - -
08/09:12pm 23.9 N 15 30 - - - - - - - - - -
08/09:00pm 23.5 NNE 15 18 - - - - - - - - - -
08/08:30pm 23.3 N 13 19 - - - - - - - - - -
08/08:00pm 23.3 NNE 21 25 - - - - - - - - - -
08/07:30pm 23.4 NNE 24 29 - - - - - - - - - -
08/07:00pm 23.5 NNE 22 28 - - - - - - - - - -
08/06:30pm 23.9 NNE 25 32 - - - - - - - - - -
08/06:00pm 23.4 NNE 25 29 - - - - - - - - - -
08/05:30pm 23.3 NNE 24 29 - - - - - - - - - -
08/05:00pm 23.0 NNE 24 29 - - - - - - - - - -
08/04:30pm 22.9 NNE 27 32 - - - - - - - - - -
08/04:00pm 22.9 NNE 23 28 - - - - - - - - - -
08/03:30pm 22.9 NNE 23 28 - - - - - - - - - -
08/03:00pm 22.8 NNE 25 31 - - - - - - - - - -
08/02:30pm 22.7 NNE 24 28 - - - - - - - - - -
08/02:00pm 22.5 NNE 23 27 - - - - - - - - - -
08/01:30pm 22.4 NNE 22 26 - - - - - - - - - -
08/01:00pm 22.0 NNE 21 25 - - - - - - - - - -
08/12:30pm 21.6 NNE 19 21 - - - - - - - - - -
08/12:00pm 21.7 NNE 15 17 - - - - - - - - - -
08/11:30am 21.5 NNE 16 18 - - - - - - - - - -
08/11:00am 21.4 NNE 16 18 - - - - - - - - - -
08/10:30am 21.3 NE 12 13 - - - - - - - - - -
08/10:00am 21.0 NNE 14 17 - - - - - - - - - -
08/09:30am 21.0 NNE 11 12 - - - - - - - - - -
08/09:00am 20.8 NNE 9 11 - - - - - - - - - -
08/08:30am 20.8 NNE 8 11 - - - - - - - - - -
08/08:00am 20.7 NNE 8 10 - - - - - - - - - -
08/07:30am 20.6 N 8 10 - - - - - - - - - -
08/07:00am 20.5 N 7 8 - - - - - - - - - -
08/06:30am 20.5 NNW 7 10 - - - - - - - - - -
08/06:00am 20.4 N 7 9 - - - - - - - - - -
08/05:30am 20.5 NNW 7 9 - - - - - - - - - -
08/05:00am 20.6 N 9 14 - - - - - - - - - -
08/04:30am 20.7 N 12 16 - - - - - - - - - -
08/04:00am 20.8 N 11 17 - - - - - - - - - -
08/03:30am 20.8 N 12 15 - - - - - - - - - -
08/03:00am 20.9 N 11 14 - - - - - - - - - -
08/02:30am 21.1 NNE 13 16 - - - - - - - - - -
08/02:00am 21.1 N 15 19 - - - - - - - - - -
08/01:30am 21.1 NNE 18 23 - - - - - - - - - -
08/01:00am 21.2 NNE 19 22 - - - - - - - - - -
08/12:30am 21.4 NNE 17 21 - - - - - - - - - -
08/12:00am 21.3 NNE 17 22 - - - - - - - - - -
 
Date/Time
EDT
Temp
°C
Wind Pressure Rain since
9am
mm
Weather Cloud Vis
km
Sea
Height
m
Swell
Dir  Spd
kts
Gust
kts
hPa Trend Height
m
Period
s
Dir
07/11:30pm 21.4 NNE 19 21 - - - - - - - - - -
07/11:00pm 21.2 NNE 17 20 - - - - - - - - - -
07/10:30pm 21.4 NE 16 20 - - - - - - - - - -
07/10:00pm 21.4 NNE 17 20 - - - - - - - - - -
07/09:30pm 21.3 NE 16 21 - - - - - - - - - -
07/09:00pm 21.3 NE 15 19 - - - - - - - - - -
07/08:30pm 21.4 NE 16 20 - - - - - - - - - -
07/08:00pm 21.4 NE 15 19 - - - - - - - - - -
07/07:30pm 21.5 NE 17 19 - - - - - - - - - -
07/07:00pm 21.5 NE 16 19 - - - - - - - - - -
07/06:30pm 21.4 NE 15 19 - - - - - - - - - -
07/06:00pm 21.5 NE 15 18 - - - - - - - - - -
07/05:30pm 21.5 ENE 14 17 - - - - - - - - - -
07/05:00pm 21.4 ENE 13 15 - - - - - - - - - -
07/04:30pm 21.5 ENE 12 14 - - - - - - - - - -
07/04:00pm 21.6 ENE 13 14 - - - - - - - - - -
07/03:30pm 21.5 ENE 11 13 - - - - - - - - - -
07/03:00pm 21.7 E 11 14 - - - - - - - - - -
07/02:30pm 22.1 E 10 13 - - - - - - - - - -
07/02:00pm 22.1 E 10 13 - - - - - - - - - -
07/01:30pm 22.5 E 11 13 - - - - - - - - - -
07/01:00pm 22.3 E 11 13 - - - - - - - - - -
07/12:30pm 22.2 E 10 14 - - - - - - - - - -
07/12:00pm 22.3 ESE 10 12 - - - - - - - - - -
07/11:30am 22.0 ESE 8 12 - - - - - - - - - -
07/11:00am 21.8 ESE 9 12 - - - - - - - - - -
07/10:30am 21.7 SE 10 14 - - - - - - - - - -
07/10:00am 21.9 ESE 9 12 - - - - - - - - - -
07/09:30am 21.6 SE 11 14 - - - - - - - - - -
07/09:00am 21.7 SE 11 14 - - - - - - - - - -
07/08:30am 21.2 SE 11 14 - - - - - - - - - -
07/08:00am 20.9 SE 12 15 - - - - - - - - - -
07/07:30am 20.6 SSE 9 13 - - - - - - - - - -
07/07:00am 20.3 SSW 9 14 - - - - - - - - - -
07/06:30am 19.8 WSW 10 15 - - - - - - - - - -
07/06:00am 19.6 S 7 8 - - - - - - - - - -
07/05:30am 19.9 S 4 6 - - - - - - - - - -
07/05:00am 20.7 S 6 7 - - - - - - - - - -
07/04:30am 20.3 S 5 6 - - - - - - - - - -
07/04:00am 20.2 S 7 9 - - - - - - - - - -
07/03:30am 20.5 SSW 7 10 - - - - - - - - - -
07/03:00am 20.4 SSW 11 14 - - - - - - - - - -
07/02:30am 20.6 SSW 15 18 - - - - - - - - - -
07/02:00am 20.6 SW 18 22 - - - - - - - - - -
07/01:30am 20.8 SSW 16 20 - - - - - - - - - -
07/01:00am 21.1 SSW 18 22 - - - - - - - - - -
07/12:30am 21.3 SSW 16 19 - - - - - - - - - -
07/12:00am 21.6 SSW 13 16 - - - - - - - - - -
 
Date/Time
EDT
Temp
°C
Wind Pressure Rain since
9am
mm
Weather Cloud Vis
km
Sea
Height
m
Swell
Dir  Spd
kts
Gust
kts
hPa Trend Height
m
Period
s
Dir
06/11:30pm 21.7 SSW 13 16 - - - - - - - - - -
06/11:00pm 23.4 SW 13 16 - - - - - - - - - -
06/10:30pm 23.4 WSW 10 13 - - - - - - - - - -
06/10:00pm 23.7 W 8 12 - - - - - - - - - -
06/09:30pm 23.2 W 11 13 - - - - - - - - - -
06/09:00pm 23.1 W 8 11 - - - - - - - - - -
06/08:30pm 22.9 SW 5 7 - - - - - - - - - -
06/08:00pm 23.1 WNW 7 10 - - - - - - - - - -
06/07:30pm 23.0 NNW 5 11 - - - - - - - - - -
06/07:00pm 22.1 N 6 7 - - - - - - - - - -
06/06:30pm 22.3 N 6 7 - - - - - - - - - -
06/06:00pm 22.3 CALM 0 0 - - - - - - - - - -
06/05:30pm 22.4 CALM 0 0 - - - - - - - - - -
06/05:00pm 22.2 N 5 6 - - - - - - - - - -
06/04:30pm 22.1 CALM 0 0 - - - - - - - - - -
06/04:00pm 21.8 N 6 8 - - - - - - - - - -
06/03:30pm 21.3 N 9 11 - - - - - - - - - -
06/03:00pm 20.9 SSW 6 7 - - - - - - - - - -
06/02:30pm 21.8 SSW 4 6 - - - - - - - - - -
06/02:00pm 21.6 SSW 8 9 - - - - - - - - - -
06/01:30pm 22.1 SSW 7 9 - - - - - - - - - -
06/01:00pm 22.4 SSW 4 5 - - - - - - - - - -
06/12:30pm 21.5 SSW 7 8 - - - - - - - - - -
06/12:00pm 21.9 SSW 8 10 - - - - - - - - - -
06/11:30am 22.2 SSW 4 8 - - - - - - - - - -
06/11:00am 21.7 SSW 5 7 - - - - - - - - - -
06/10:30am 21.4 SSW 6 8 - - - - - - - - - -
06/10:00am 21.1 SSW 7 9 - - - - - - - - - -
06/09:30am 20.5 WSW 6 7 - - - - - - - - - -
06/09:00am 20.2 WSW 8 9 - - - - - - - - - -
06/08:30am 20.4 SW 8 10 - - - - - - - - - -
06/08:00am 20.5 SW 11 14 - - - - - - - - - -
06/07:30am 20.9 SW 13 17 - - - - - - - - - -
06/07:00am 21.0 SSW 13 15 - - - - - - - - - -
06/06:30am 21.1 SSW 10 13 - - - - - - - - - -
06/06:00am 21.0 SSW 12 15 - - - - - - - - - -
06/05:30am 21.2 SSW 12 15 - - - - - - - - - -
06/05:00am 21.3 SSW 9 10 - - - - - - - - - -
06/04:30am 21.3 SW 6 8 - - - - - - - - - -
06/04:00am 21.1 SSW 8 11 - - - - - - - - - -
06/03:30am 21.0 SW 10 13 - - - - - - - - - -
06/03:00am 20.9 SW 9 12 - - - - - - - - - -
06/02:30am 20.9 SSW 9 11 - - - - - - - - - -
06/02:00am 20.8 SSW 12 15 - - - - - - - - - -
06/01:30am 21.0 SSW 7 11 - - - - - - - - - -

Other Formats:

Comma delimited format used in spreadsheet applications
http://www.bom.gov.au/fwo/IDN60701/IDN60701.95766.axf

JavaScript Object Notation format (JSON) in row-major order
http://www.bom.gov.au/fwo/IDN60701/IDN60701.95766.json